sensor_id;sensor_type;location;lat;lon;timestamp;P1;durP1;ratioP1;P2;durP2;ratioP2
38399;SDS011;24180;42.676;23.320;2023-05-18T00:02:03;6.93;;;5.17;;
38399;SDS011;24180;42.676;23.320;2023-05-18T00:04:30;5.80;;;4.60;;
38399;SDS011;24180;42.676;23.320;2023-05-18T00:06:58;5.30;;;4.90;;
38399;SDS011;24180;42.676;23.320;2023-05-18T00:09:31;5.23;;;4.33;;
38399;SDS011;24180;42.676;23.320;2023-05-18T00:12:00;4.97;;;4.47;;
38399;SDS011;24180;42.676;23.320;2023-05-18T00:14:26;4.73;;;4.33;;
38399;SDS011;24180;42.676;23.320;2023-05-18T00:16:52;4.80;;;4.40;;
38399;SDS011;24180;42.676;23.320;2023-05-18T00:19:19;4.33;;;4.03;;
38399;SDS011;24180;42.676;23.320;2023-05-18T00:21:45;4.50;;;4.10;;
38399;SDS011;24180;42.676;23.320;2023-05-18T00:24:12;4.27;;;3.77;;
38399;SDS011;24180;42.676;23.320;2023-05-18T00:26:38;5.27;;;4.17;;
38399;SDS011;24180;42.676;23.320;2023-05-18T00:29:04;4.67;;;4.27;;
38399;SDS011;24180;42.676;23.320;2023-05-18T00:31:31;4.17;;;3.87;;
38399;SDS011;24180;42.676;23.320;2023-05-18T00:34:00;3.90;;;3.60;;
38399;SDS011;24180;42.676;23.320;2023-05-18T00:36:30;3.97;;;3.63;;
38399;SDS011;24180;42.676;23.320;2023-05-18T00:38:59;3.70;;;3.40;;
38399;SDS011;24180;42.676;23.320;2023-05-18T00:41:25;3.40;;;3.20;;
38399;SDS011;24180;42.676;23.320;2023-05-18T00:43:55;3.53;;;3.33;;
38399;SDS011;24180;42.676;23.320;2023-05-18T00:46:21;3.30;;;3.10;;
38399;SDS011;24180;42.676;23.320;2023-05-18T00:48:48;4.10;;;3.70;;
38399;SDS011;24180;42.676;23.320;2023-05-18T00:51:15;3.97;;;3.60;;
38399;SDS011;24180;42.676;23.320;2023-05-18T00:53:42;3.57;;;3.37;;
38399;SDS011;24180;42.676;23.320;2023-05-18T00:56:08;3.93;;;3.63;;
38399;SDS011;24180;42.676;23.320;2023-05-18T00:58:35;3.83;;;3.53;;
38399;SDS011;24180;42.676;23.320;2023-05-18T01:01:02;4.03;;;3.33;;
38399;SDS011;24180;42.676;23.320;2023-05-18T01:03:30;3.90;;;3.60;;
38399;SDS011;24180;42.676;23.320;2023-05-18T01:05:57;4.37;;;3.47;;
38399;SDS011;24180;42.676;23.320;2023-05-18T01:08:26;4.13;;;3.83;;
38399;SDS011;24180;42.676;23.320;2023-05-18T01:10:56;6.10;;;4.30;;
38399;SDS011;24180;42.676;23.320;2023-05-18T01:14:18;3.80;;;3.40;;
38399;SDS011;24180;42.676;23.320;2023-05-18T01:22:22;3.53;;;3.23;;
38399;SDS011;24180;42.676;23.320;2023-05-18T01:25:05;3.60;;;3.30;;
38399;SDS011;24180;42.676;23.320;2023-05-18T01:27:34;5.00;;;3.30;;
38399;SDS011;24180;42.676;23.320;2023-05-18T01:30:02;3.60;;;3.40;;
38399;SDS011;24180;42.676;23.320;2023-05-18T01:32:29;3.30;;;3.10;;
38399;SDS011;24180;42.676;23.320;2023-05-18T01:34:54;3.50;;;3.30;;
38399;SDS011;24180;42.676;23.320;2023-05-18T01:37:20;3.33;;;3.13;;
38399;SDS011;24180;42.676;23.320;2023-05-18T01:39:45;3.20;;;3.00;;
38399;SDS011;24180;42.676;23.320;2023-05-18T01:42:12;3.27;;;3.07;;
38399;SDS011;24180;42.676;23.320;2023-05-18T01:44:44;3.60;;;3.40;;
38399;SDS011;24180;42.676;23.320;2023-05-18T01:47:15;3.70;;;3.40;;
38399;SDS011;24180;42.676;23.320;2023-05-18T01:52:08;3.60;;;3.40;;
38399;SDS011;24180;42.676;23.320;2023-05-18T01:54:36;4.33;;;3.60;;
38399;SDS011;24180;42.676;23.320;2023-05-18T01:57:07;3.63;;;3.43;;
38399;SDS011;24180;42.676;23.320;2023-05-18T01:59:33;3.50;;;3.30;;
38399;SDS011;24180;42.676;23.320;2023-05-18T02:02:00;4.10;;;3.63;;
38399;SDS011;24180;42.676;23.320;2023-05-18T02:04:28;4.73;;;4.23;;
38399;SDS011;24180;42.676;23.320;2023-05-18T02:06:53;4.37;;;4.07;;
38399;SDS011;24180;42.676;23.320;2023-05-18T02:09:20;4.80;;;4.30;;
38399;SDS011;24180;42.676;23.320;2023-05-18T02:11:46;4.33;;;3.87;;
38399;SDS011;24180;42.676;23.320;2023-05-18T02:14:12;4.30;;;3.90;;
38399;SDS011;24180;42.676;23.320;2023-05-18T02:16:37;4.10;;;3.80;;
38399;SDS011;24180;42.676;23.320;2023-05-18T02:19:02;4.13;;;3.80;;
38399;SDS011;24180;42.676;23.320;2023-05-18T02:21:28;5.23;;;4.80;;
38399;SDS011;24180;42.676;23.320;2023-05-18T02:23:54;4.17;;;3.83;;
38399;SDS011;24180;42.676;23.320;2023-05-18T02:26:19;4.83;;;4.43;;
38399;SDS011;24180;42.676;23.320;2023-05-18T02:28:45;4.73;;;4.43;;
38399;SDS011;24180;42.676;23.320;2023-05-18T02:31:11;5.33;;;4.20;;
38399;SDS011;24180;42.676;23.320;2023-05-18T02:33:37;5.23;;;4.33;;
38399;SDS011;24180;42.676;23.320;2023-05-18T02:38:34;4.40;;;4.10;;
38399;SDS011;24180;42.676;23.320;2023-05-18T02:41:00;5.60;;;4.90;;
38399;SDS011;24180;42.676;23.320;2023-05-18T02:43:26;5.40;;;5.00;;
38399;SDS011;24180;42.676;23.320;2023-05-18T02:45:51;5.30;;;4.90;;
38399;SDS011;24180;42.676;23.320;2023-05-18T02:48:17;5.13;;;4.73;;
38399;SDS011;24180;42.676;23.320;2023-05-18T02:50:42;5.90;;;5.40;;
38399;SDS011;24180;42.676;23.320;2023-05-18T02:53:09;5.73;;;5.13;;
38399;SDS011;24180;42.676;23.320;2023-05-18T02:55:35;5.67;;;5.00;;
38399;SDS011;24180;42.676;23.320;2023-05-18T02:58:01;5.80;;;5.40;;
38399;SDS011;24180;42.676;23.320;2023-05-18T03:00:27;6.87;;;6.17;;
38399;SDS011;24180;42.676;23.320;2023-05-18T03:02:54;6.00;;;5.40;;
38399;SDS011;24180;42.676;23.320;2023-05-18T03:05:21;6.17;;;5.67;;
38399;SDS011;24180;42.676;23.320;2023-05-18T03:07:49;6.50;;;5.90;;
38399;SDS011;24180;42.676;23.320;2023-05-18T03:10:16;6.23;;;5.77;;
38399;SDS011;24180;42.676;23.320;2023-05-18T03:12:42;5.63;;;5.00;;
38399;SDS011;24180;42.676;23.320;2023-05-18T03:15:08;5.20;;;4.80;;
38399;SDS011;24180;42.676;23.320;2023-05-18T03:17:35;5.60;;;5.10;;
38399;SDS011;24180;42.676;23.320;2023-05-18T03:20:01;5.37;;;4.87;;
38399;SDS011;24180;42.676;23.320;2023-05-18T03:22:27;5.53;;;5.03;;
38399;SDS011;24180;42.676;23.320;2023-05-18T03:24:52;5.43;;;4.93;;
38399;SDS011;24180;42.676;23.320;2023-05-18T03:27:19;7.60;;;4.90;;
38399;SDS011;24180;42.676;23.320;2023-05-18T03:29:49;5.60;;;5.20;;
38399;SDS011;24180;42.676;23.320;2023-05-18T03:32:17;5.53;;;5.07;;
38399;SDS011;24180;42.676;23.320;2023-05-18T03:34:42;5.57;;;5.17;;
38399;SDS011;24180;42.676;23.320;2023-05-18T03:37:09;5.97;;;5.57;;
38399;SDS011;24180;42.676;23.320;2023-05-18T03:39:34;6.13;;;5.63;;
38399;SDS011;24180;42.676;23.320;2023-05-18T03:42:00;6.27;;;5.87;;
38399;SDS011;24180;42.676;23.320;2023-05-18T03:44:25;5.97;;;5.57;;
38399;SDS011;24180;42.676;23.320;2023-05-18T03:46:51;7.40;;;6.70;;
38399;SDS011;24180;42.676;23.320;2023-05-18T03:49:17;7.60;;;7.00;;
38399;SDS011;24180;42.676;23.320;2023-05-18T03:51:42;6.87;;;6.30;;
38399;SDS011;24180;42.676;23.320;2023-05-18T03:54:07;7.90;;;7.20;;
38399;SDS011;24180;42.676;23.320;2023-05-18T03:56:33;7.80;;;7.20;;
38399;SDS011;24180;42.676;23.320;2023-05-18T03:58:58;8.23;;;7.43;;
38399;SDS011;24180;42.676;23.320;2023-05-18T04:01:24;8.50;;;7.70;;
38399;SDS011;24180;42.676;23.320;2023-05-18T04:03:49;7.70;;;7.00;;
38399;SDS011;24180;42.676;23.320;2023-05-18T04:06:15;8.77;;;8.07;;
38399;SDS011;24180;42.676;23.320;2023-05-18T04:08:41;9.10;;;8.30;;
38399;SDS011;24180;42.676;23.320;2023-05-18T04:11:07;9.07;;;8.17;;
38399;SDS011;24180;42.676;23.320;2023-05-18T04:13:33;9.50;;;8.70;;
38399;SDS011;24180;42.676;23.320;2023-05-18T04:16:01;10.37;;;9.47;;
38399;SDS011;24180;42.676;23.320;2023-05-18T04:18:28;9.57;;;8.77;;
38399;SDS011;24180;42.676;23.320;2023-05-18T04:20:54;10.07;;;9.17;;
38399;SDS011;24180;42.676;23.320;2023-05-18T04:23:20;10.40;;;9.50;;
38399;SDS011;24180;42.676;23.320;2023-05-18T04:25:46;10.27;;;9.27;;
38399;SDS011;24180;42.676;23.320;2023-05-18T04:28:13;9.63;;;8.10;;
38399;SDS011;24180;42.676;23.320;2023-05-18T04:30:38;10.17;;;9.27;;
38399;SDS011;24180;42.676;23.320;2023-05-18T04:33:04;9.80;;;8.80;;
38399;SDS011;24180;42.676;23.320;2023-05-18T04:35:32;9.33;;;8.53;;
38399;SDS011;24180;42.676;23.320;2023-05-18T04:37:57;10.37;;;9.47;;
38399;SDS011;24180;42.676;23.320;2023-05-18T04:40:23;10.07;;;9.17;;
38399;SDS011;24180;42.676;23.320;2023-05-18T04:42:49;10.47;;;9.00;;
38399;SDS011;24180;42.676;23.320;2023-05-18T04:45:18;10.90;;;9.93;;
38399;SDS011;24180;42.676;23.320;2023-05-18T04:47:45;11.20;;;9.93;;
38399;SDS011;24180;42.676;23.320;2023-05-18T04:52:56;9.70;;;8.90;;
38399;SDS011;24180;42.676;23.320;2023-05-18T04:55:22;10.17;;;9.20;;
38399;SDS011;24180;42.676;23.320;2023-05-18T04:57:51;12.63;;;11.53;;
38399;SDS011;24180;42.676;23.320;2023-05-18T05:00:21;21.17;;;11.13;;
38399;SDS011;24180;42.676;23.320;2023-05-18T05:02:48;23.00;;;9.83;;
38399;SDS011;24180;42.676;23.320;2023-05-18T05:05:14;11.73;;;9.40;;
38399;SDS011;24180;42.676;23.320;2023-05-18T05:07:39;10.70;;;9.07;;
38399;SDS011;24180;42.676;23.320;2023-05-18T05:10:05;10.63;;;9.73;;
38399;SDS011;24180;42.676;23.320;2023-05-18T05:12:31;10.50;;;9.60;;
38399;SDS011;24180;42.676;23.320;2023-05-18T05:14:56;9.13;;;8.33;;
38399;SDS011;24180;42.676;23.320;2023-05-18T05:17:23;11.63;;;9.50;;
38399;SDS011;24180;42.676;23.320;2023-05-18T05:19:48;9.70;;;8.90;;
38399;SDS011;24180;42.676;23.320;2023-05-18T05:22:13;11.97;;;10.43;;
38399;SDS011;24180;42.676;23.320;2023-05-18T05:24:40;10.43;;;9.53;;
38399;SDS011;24180;42.676;23.320;2023-05-18T05:27:05;9.37;;;8.50;;
38399;SDS011;24180;42.676;23.320;2023-05-18T05:29:30;9.27;;;8.37;;
38399;SDS011;24180;42.676;23.320;2023-05-18T05:31:56;9.53;;;8.63;;
38399;SDS011;24180;42.676;23.320;2023-05-18T05:34:21;9.80;;;8.90;;
38399;SDS011;24180;42.676;23.320;2023-05-18T05:36:47;11.17;;;10.13;;
38399;SDS011;24180;42.676;23.320;2023-05-18T05:39:12;13.70;;;9.87;;
38399;SDS011;24180;42.676;23.320;2023-05-18T05:41:38;9.27;;;8.57;;
38399;SDS011;24180;42.676;23.320;2023-05-18T05:44:22;11.97;;;10.87;;
38399;SDS011;24180;42.676;23.320;2023-05-18T05:46:47;11.10;;;10.03;;
38399;SDS011;24180;42.676;23.320;2023-05-18T05:49:12;10.40;;;9.27;;
38399;SDS011;24180;42.676;23.320;2023-05-18T05:51:38;8.20;;;7.60;;
38399;SDS011;24180;42.676;23.320;2023-05-18T05:54:03;11.70;;;9.63;;
38399;SDS011;24180;42.676;23.320;2023-05-18T05:56:29;9.97;;;9.07;;
38399;SDS011;24180;42.676;23.320;2023-05-18T05:58:54;10.13;;;9.43;;
38399;SDS011;24180;42.676;23.320;2023-05-18T06:01:20;11.00;;;10.00;;
38399;SDS011;24180;42.676;23.320;2023-05-18T06:03:45;11.70;;;10.70;;
38399;SDS011;24180;42.676;23.320;2023-05-18T06:06:12;13.60;;;12.50;;
38399;SDS011;24180;42.676;23.320;2023-05-18T06:08:38;15.30;;;14.10;;
38399;SDS011;24180;42.676;23.320;2023-05-18T06:11:03;10.43;;;9.43;;
38399;SDS011;24180;42.676;23.320;2023-05-18T06:13:29;13.77;;;12.67;;
38399;SDS011;24180;42.676;23.320;2023-05-18T06:15:55;18.90;;;17.37;;
38399;SDS011;24180;42.676;23.320;2023-05-18T06:18:21;8.50;;;7.80;;
38399;SDS011;24180;42.676;23.320;2023-05-18T06:20:46;12.97;;;11.67;;
38399;SDS011;24180;42.676;23.320;2023-05-18T06:23:12;10.87;;;9.93;;
38399;SDS011;24180;42.676;23.320;2023-05-18T06:25:37;12.53;;;11.27;;
38399;SDS011;24180;42.676;23.320;2023-05-18T06:28:03;11.37;;;10.17;;
38399;SDS011;24180;42.676;23.320;2023-05-18T06:30:28;13.67;;;11.13;;
38399;SDS011;24180;42.676;23.320;2023-05-18T06:32:54;12.43;;;11.23;;
38399;SDS011;24180;42.676;23.320;2023-05-18T06:35:19;16.03;;;14.53;;
38399;SDS011;24180;42.676;23.320;2023-05-18T06:37:45;13.83;;;12.47;;
38399;SDS011;24180;42.676;23.320;2023-05-18T06:40:10;12.27;;;11.07;;
38399;SDS011;24180;42.676;23.320;2023-05-18T06:42:36;12.13;;;11.00;;
38399;SDS011;24180;42.676;23.320;2023-05-18T06:45:02;15.60;;;13.93;;
38399;SDS011;24180;42.676;23.320;2023-05-18T06:47:27;15.77;;;14.27;;
38399;SDS011;24180;42.676;23.320;2023-05-18T06:49:53;15.50;;;14.00;;
38399;SDS011;24180;42.676;23.320;2023-05-18T06:52:18;16.60;;;14.33;;
38399;SDS011;24180;42.676;23.320;2023-05-18T06:54:44;15.57;;;14.03;;
38399;SDS011;24180;42.676;23.320;2023-05-18T06:57:10;16.20;;;14.60;;
38399;SDS011;24180;42.676;23.320;2023-05-18T06:59:35;14.70;;;12.93;;
38399;SDS011;24180;42.676;23.320;2023-05-18T07:02:01;14.87;;;13.37;;
38399;SDS011;24180;42.676;23.320;2023-05-18T07:04:26;14.20;;;12.80;;
38399;SDS011;24180;42.676;23.320;2023-05-18T07:06:52;14.40;;;11.80;;
38399;SDS011;24180;42.676;23.320;2023-05-18T07:09:19;12.77;;;11.53;;
38399;SDS011;24180;42.676;23.320;2023-05-18T07:11:46;17.80;;;13.10;;
38399;SDS011;24180;42.676;23.320;2023-05-18T07:14:11;14.80;;;12.87;;
38399;SDS011;24180;42.676;23.320;2023-05-18T07:16:37;19.73;;;15.33;;
38399;SDS011;24180;42.676;23.320;2023-05-18T07:19:03;13.90;;;12.40;;
38399;SDS011;24180;42.676;23.320;2023-05-18T07:21:28;14.83;;;13.33;;
38399;SDS011;24180;42.676;23.320;2023-05-18T07:23:55;13.63;;;12.30;;
38399;SDS011;24180;42.676;23.320;2023-05-18T07:26:20;16.10;;;13.13;;
38399;SDS011;24180;42.676;23.320;2023-05-18T07:28:46;18.87;;;14.13;;
38399;SDS011;24180;42.676;23.320;2023-05-18T07:31:12;16.20;;;14.50;;
38399;SDS011;24180;42.676;23.320;2023-05-18T07:33:40;15.30;;;14.00;;
38399;SDS011;24180;42.676;23.320;2023-05-18T07:36:05;16.93;;;14.00;;
38399;SDS011;24180;42.676;23.320;2023-05-18T07:38:32;19.00;;;14.90;;
38399;SDS011;24180;42.676;23.320;2023-05-18T07:40:58;19.63;;;14.20;;
38399;SDS011;24180;42.676;23.320;2023-05-18T07:43:24;15.57;;;13.93;;
38399;SDS011;24180;42.676;23.320;2023-05-18T07:45:50;32.23;;;16.93;;
38399;SDS011;24180;42.676;23.320;2023-05-18T07:48:15;16.47;;;14.00;;
38399;SDS011;24180;42.676;23.320;2023-05-18T07:50:40;16.07;;;13.97;;
38399;SDS011;24180;42.676;23.320;2023-05-18T07:53:06;19.57;;;13.57;;
38399;SDS011;24180;42.676;23.320;2023-05-18T07:55:31;17.30;;;13.53;;
38399;SDS011;24180;42.676;23.320;2023-05-18T07:57:57;16.40;;;13.23;;
38399;SDS011;24180;42.676;23.320;2023-05-18T08:00:25;27.43;;;18.87;;
38399;SDS011;24180;42.676;23.320;2023-05-18T08:02:50;19.93;;;14.47;;
38399;SDS011;24180;42.676;23.320;2023-05-18T08:05:16;23.60;;;14.00;;
38399;SDS011;24180;42.676;23.320;2023-05-18T08:07:42;22.63;;;14.53;;
38399;SDS011;24180;42.676;23.320;2023-05-18T08:10:08;20.57;;;15.37;;
38399;SDS011;24180;42.676;23.320;2023-05-18T08:12:34;15.33;;;13.73;;
38399;SDS011;24180;42.676;23.320;2023-05-18T08:14:59;18.33;;;13.60;;
38399;SDS011;24180;42.676;23.320;2023-05-18T08:17:25;56.00;;;17.40;;
38399;SDS011;24180;42.676;23.320;2023-05-18T08:19:50;13.40;;;12.00;;
38399;SDS011;24180;42.676;23.320;2023-05-18T08:22:17;13.17;;;11.80;;
38399;SDS011;24180;42.676;23.320;2023-05-18T08:24:43;18.40;;;14.27;;
38399;SDS011;24180;42.676;23.320;2023-05-18T08:27:09;13.53;;;11.83;;
38399;SDS011;24180;42.676;23.320;2023-05-18T08:29:35;14.40;;;12.53;;
38399;SDS011;24180;42.676;23.320;2023-05-18T08:32:01;19.57;;;14.40;;
38399;SDS011;24180;42.676;23.320;2023-05-18T08:34:26;16.53;;;13.73;;
38399;SDS011;24180;42.676;23.320;2023-05-18T08:36:54;14.93;;;13.60;;
38399;SDS011;24180;42.676;23.320;2023-05-18T08:39:19;14.67;;;13.17;;
38399;SDS011;24180;42.676;23.320;2023-05-18T08:41:52;16.13;;;14.47;;
38399;SDS011;24180;42.676;23.320;2023-05-18T08:44:30;14.23;;;12.83;;
38399;SDS011;24180;42.676;23.320;2023-05-18T08:47:02;14.83;;;13.20;;
38399;SDS011;24180;42.676;23.320;2023-05-18T08:49:29;17.83;;;15.93;;
38399;SDS011;24180;42.676;23.320;2023-05-18T08:51:56;16.07;;;14.47;;
38399;SDS011;24180;42.676;23.320;2023-05-18T08:54:27;18.10;;;14.90;;
38399;SDS011;24180;42.676;23.320;2023-05-18T08:56:54;16.93;;;15.23;;
38399;SDS011;24180;42.676;23.320;2023-05-18T08:59:23;16.50;;;14.90;;
38399;SDS011;24180;42.676;23.320;2023-05-18T09:01:51;16.27;;;14.57;;
38399;SDS011;24180;42.676;23.320;2023-05-18T09:04:19;16.37;;;14.67;;
38399;SDS011;24180;42.676;23.320;2023-05-18T09:06:46;17.97;;;13.93;;
38399;SDS011;24180;42.676;23.320;2023-05-18T09:09:12;14.67;;;13.13;;
38399;SDS011;24180;42.676;23.320;2023-05-18T09:11:38;15.10;;;13.60;;
38399;SDS011;24180;42.676;23.320;2023-05-18T09:14:04;14.37;;;12.87;;
38399;SDS011;24180;42.676;23.320;2023-05-18T09:16:29;13.87;;;12.67;;
38399;SDS011;24180;42.676;23.320;2023-05-18T09:18:55;14.90;;;13.00;;
38399;SDS011;24180;42.676;23.320;2023-05-18T09:21:21;15.10;;;13.33;;
38399;SDS011;24180;42.676;23.320;2023-05-18T09:23:46;15.23;;;13.27;;
38399;SDS011;24180;42.676;23.320;2023-05-18T09:26:12;15.90;;;13.27;;
38399;SDS011;24180;42.676;23.320;2023-05-18T09:28:38;14.83;;;13.33;;
38399;SDS011;24180;42.676;23.320;2023-05-18T09:31:06;15.67;;;13.47;;
38399;SDS011;24180;42.676;23.320;2023-05-18T09:33:37;13.60;;;12.20;;
38399;SDS011;24180;42.676;23.320;2023-05-18T09:36:04;14.17;;;11.97;;
38399;SDS011;24180;42.676;23.320;2023-05-18T09:38:35;12.73;;;11.47;;
38399;SDS011;24180;42.676;23.320;2023-05-18T09:41:10;12.77;;;11.43;;
38399;SDS011;24180;42.676;23.320;2023-05-18T09:43:38;17.97;;;12.27;;
38399;SDS011;24180;42.676;23.320;2023-05-18T09:46:07;17.30;;;13.93;;
38399;SDS011;24180;42.676;23.320;2023-05-18T09:48:34;14.70;;;11.27;;
38399;SDS011;24180;42.676;23.320;2023-05-18T09:51:00;11.40;;;10.23;;
38399;SDS011;24180;42.676;23.320;2023-05-18T09:53:26;11.97;;;10.63;;
38399;SDS011;24180;42.676;23.320;2023-05-18T09:55:51;19.30;;;10.60;;
38399;SDS011;24180;42.676;23.320;2023-05-18T09:58:17;14.40;;;10.30;;
38399;SDS011;24180;42.676;23.320;2023-05-18T10:00:43;11.07;;;9.93;;
38399;SDS011;24180;42.676;23.320;2023-05-18T10:03:16;15.50;;;10.13;;
38399;SDS011;24180;42.676;23.320;2023-05-18T10:05:43;12.37;;;10.90;;
38399;SDS011;24180;42.676;23.320;2023-05-18T10:08:08;14.87;;;12.77;;
38399;SDS011;24180;42.676;23.320;2023-05-18T10:10:37;16.90;;;10.57;;
38399;SDS011;24180;42.676;23.320;2023-05-18T10:13:04;11.03;;;9.93;;
38399;SDS011;24180;42.676;23.320;2023-05-18T10:15:30;11.93;;;10.63;;
38399;SDS011;24180;42.676;23.320;2023-05-18T10:17:57;13.43;;;10.60;;
38399;SDS011;24180;42.676;23.320;2023-05-18T10:20:24;11.30;;;10.20;;
38399;SDS011;24180;42.676;23.320;2023-05-18T10:22:51;11.40;;;10.17;;
38399;SDS011;24180;42.676;23.320;2023-05-18T10:25:20;16.83;;;10.33;;
38399;SDS011;24180;42.676;23.320;2023-05-18T10:27:48;13.40;;;11.43;;
38399;SDS011;24180;42.676;23.320;2023-05-18T10:30:15;11.33;;;9.30;;
38399;SDS011;24180;42.676;23.320;2023-05-18T10:32:44;15.80;;;9.80;;
38399;SDS011;24180;42.676;23.320;2023-05-18T10:35:10;11.50;;;10.40;;
38399;SDS011;24180;42.676;23.320;2023-05-18T10:37:37;13.30;;;9.87;;
38399;SDS011;24180;42.676;23.320;2023-05-18T10:40:05;13.43;;;10.20;;
38399;SDS011;24180;42.676;23.320;2023-05-18T10:42:32;13.60;;;9.60;;
38399;SDS011;24180;42.676;23.320;2023-05-18T10:44:59;12.83;;;10.10;;
38399;SDS011;24180;42.676;23.320;2023-05-18T10:47:28;18.43;;;10.30;;
38399;SDS011;24180;42.676;23.320;2023-05-18T10:49:56;21.13;;;12.30;;
38399;SDS011;24180;42.676;23.320;2023-05-18T10:52:23;17.77;;;10.00;;
38399;SDS011;24180;42.676;23.320;2023-05-18T10:54:55;13.33;;;9.60;;
38399;SDS011;24180;42.676;23.320;2023-05-18T10:57:25;11.77;;;9.33;;
38399;SDS011;24180;42.676;23.320;2023-05-18T10:59:58;11.93;;;9.50;;
38399;SDS011;24180;42.676;23.320;2023-05-18T11:02:24;15.20;;;10.57;;
38399;SDS011;24180;42.676;23.320;2023-05-18T11:04:51;14.77;;;10.87;;
38399;SDS011;24180;42.676;23.320;2023-05-18T11:07:17;13.43;;;10.77;;
38399;SDS011;24180;42.676;23.320;2023-05-18T11:09:47;18.80;;;13.37;;
38399;SDS011;24180;42.676;23.320;2023-05-18T11:12:14;12.07;;;9.80;;
38399;SDS011;24180;42.676;23.320;2023-05-18T11:17:14;11.47;;;9.47;;
38399;SDS011;24180;42.676;23.320;2023-05-18T11:27:53;23.83;;;12.43;;
38399;SDS011;24180;42.676;23.320;2023-05-18T11:30:43;14.83;;;11.73;;
38399;SDS011;24180;42.676;23.320;2023-05-18T11:38:48;10.50;;;9.47;;
38399;SDS011;24180;42.676;23.320;2023-05-18T11:41:34;12.80;;;9.40;;
38399;SDS011;24180;42.676;23.320;2023-05-18T11:49:29;9.97;;;7.97;;
38399;SDS011;24180;42.676;23.320;2023-05-18T11:52:00;9.70;;;8.60;;
38399;SDS011;24180;42.676;23.320;2023-05-18T11:54:27;8.67;;;7.77;;
38399;SDS011;24180;42.676;23.320;2023-05-18T11:56:57;8.47;;;7.43;;
38399;SDS011;24180;42.676;23.320;2023-05-18T11:59:29;7.57;;;6.50;;
38399;SDS011;24180;42.676;23.320;2023-05-18T12:01:57;7.83;;;6.93;;
38399;SDS011;24180;42.676;23.320;2023-05-18T12:04:24;13.53;;;8.10;;
38399;SDS011;24180;42.676;23.320;2023-05-18T12:06:50;11.83;;;7.67;;
38399;SDS011;24180;42.676;23.320;2023-05-18T12:09:17;9.23;;;7.43;;
38399;SDS011;24180;42.676;23.320;2023-05-18T12:11:43;7.43;;;6.73;;
38399;SDS011;24180;42.676;23.320;2023-05-18T12:14:10;7.53;;;6.27;;
38399;SDS011;24180;42.676;23.320;2023-05-18T12:16:36;7.53;;;6.73;;
38399;SDS011;24180;42.676;23.320;2023-05-18T12:19:03;7.23;;;6.53;;
38399;SDS011;24180;42.676;23.320;2023-05-18T12:21:28;12.93;;;9.10;;
38399;SDS011;24180;42.676;23.320;2023-05-18T12:23:58;7.27;;;6.53;;
38399;SDS011;24180;42.676;23.320;2023-05-18T12:26:25;6.30;;;5.80;;
38399;SDS011;24180;42.676;23.320;2023-05-18T12:28:52;8.33;;;6.23;;
38399;SDS011;24180;42.676;23.320;2023-05-18T12:31:18;6.37;;;5.87;;
38399;SDS011;24180;42.676;23.320;2023-05-18T12:33:44;6.17;;;5.60;;
38399;SDS011;24180;42.676;23.320;2023-05-18T12:36:11;7.80;;;7.00;;
38399;SDS011;24180;42.676;23.320;2023-05-18T12:38:37;8.87;;;6.83;;
38399;SDS011;24180;42.676;23.320;2023-05-18T12:41:02;8.17;;;7.47;;
38399;SDS011;24180;42.676;23.320;2023-05-18T12:43:32;8.20;;;7.40;;
38399;SDS011;24180;42.676;23.320;2023-05-18T12:46:02;8.37;;;7.57;;
38399;SDS011;24180;42.676;23.320;2023-05-18T12:48:34;7.13;;;6.53;;
38399;SDS011;24180;42.676;23.320;2023-05-18T12:51:01;8.70;;;7.10;;
38399;SDS011;24180;42.676;23.320;2023-05-18T12:53:26;7.50;;;6.80;;
38399;SDS011;24180;42.676;23.320;2023-05-18T12:56:05;8.97;;;8.10;;
38399;SDS011;24180;42.676;23.320;2023-05-18T12:58:33;8.70;;;7.40;;
38399;SDS011;24180;42.676;23.320;2023-05-18T13:01:05;7.37;;;6.67;;
38399;SDS011;24180;42.676;23.320;2023-05-18T13:03:32;11.17;;;7.60;;
38399;SDS011;24180;42.676;23.320;2023-05-18T13:06:02;8.00;;;7.20;;
38399;SDS011;24180;42.676;23.320;2023-05-18T13:08:30;8.80;;;7.93;;
38399;SDS011;24180;42.676;23.320;2023-05-18T13:11:07;8.87;;;7.77;;
38399;SDS011;24180;42.676;23.320;2023-05-18T13:13:33;7.73;;;7.03;;
38399;SDS011;24180;42.676;23.320;2023-05-18T13:15:59;7.70;;;7.00;;
38399;SDS011;24180;42.676;23.320;2023-05-18T13:18:25;7.97;;;7.23;;
38399;SDS011;24180;42.676;23.320;2023-05-18T13:20:52;7.93;;;7.13;;
38399;SDS011;24180;42.676;23.320;2023-05-18T13:23:20;7.87;;;6.70;;
38399;SDS011;24180;42.676;23.320;2023-05-18T13:25:47;9.30;;;7.87;;
38399;SDS011;24180;42.676;23.320;2023-05-18T13:28:14;9.13;;;7.70;;
38399;SDS011;24180;42.676;23.320;2023-05-18T13:30:41;7.30;;;6.70;;
38399;SDS011;24180;42.676;23.320;2023-05-18T13:33:07;7.93;;;7.33;;
38399;SDS011;24180;42.676;23.320;2023-05-18T13:35:34;8.87;;;7.63;;
38399;SDS011;24180;42.676;23.320;2023-05-18T13:38:00;8.87;;;8.10;;
38399;SDS011;24180;42.676;23.320;2023-05-18T13:40:26;8.67;;;7.83;;
38399;SDS011;24180;42.676;23.320;2023-05-18T13:42:51;8.63;;;7.83;;
38399;SDS011;24180;42.676;23.320;2023-05-18T13:45:17;8.07;;;7.37;;
38399;SDS011;24180;42.676;23.320;2023-05-18T13:47:45;8.03;;;7.30;;
38399;SDS011;24180;42.676;23.320;2023-05-18T13:50:14;9.20;;;7.40;;
38399;SDS011;24180;42.676;23.320;2023-05-18T13:52:40;8.80;;;7.57;;
38399;SDS011;24180;42.676;23.320;2023-05-18T13:55:05;8.87;;;8.07;;
38399;SDS011;24180;42.676;23.320;2023-05-18T13:57:32;10.10;;;8.60;;
38399;SDS011;24180;42.676;23.320;2023-05-18T13:59:58;9.60;;;8.50;;
38399;SDS011;24180;42.676;23.320;2023-05-18T14:02:24;9.57;;;8.67;;
38399;SDS011;24180;42.676;23.320;2023-05-18T14:04:50;10.17;;;8.63;;
38399;SDS011;24180;42.676;23.320;2023-05-18T14:07:16;9.67;;;8.87;;
38399;SDS011;24180;42.676;23.320;2023-05-18T14:09:42;10.27;;;8.43;;
38399;SDS011;24180;42.676;23.320;2023-05-18T14:12:07;9.23;;;8.33;;
38399;SDS011;24180;42.676;23.320;2023-05-18T14:14:34;9.47;;;8.67;;
38399;SDS011;24180;42.676;23.320;2023-05-18T14:17:00;9.23;;;8.33;;
38399;SDS011;24180;42.676;23.320;2023-05-18T14:19:27;9.73;;;8.73;;
38399;SDS011;24180;42.676;23.320;2023-05-18T14:21:52;10.50;;;9.50;;
38399;SDS011;24180;42.676;23.320;2023-05-18T14:24:18;10.37;;;8.67;;
38399;SDS011;24180;42.676;23.320;2023-05-18T14:26:43;9.40;;;8.40;;
38399;SDS011;24180;42.676;23.320;2023-05-18T14:29:09;9.97;;;9.07;;
38399;SDS011;24180;42.676;23.320;2023-05-18T14:31:34;9.83;;;9.03;;
38399;SDS011;24180;42.676;23.320;2023-05-18T14:34:00;11.03;;;9.97;;
38399;SDS011;24180;42.676;23.320;2023-05-18T14:36:25;11.30;;;9.67;;
38399;SDS011;24180;42.676;23.320;2023-05-18T14:38:51;9.93;;;8.93;;
38399;SDS011;24180;42.676;23.320;2023-05-18T14:41:16;9.83;;;8.93;;
38399;SDS011;24180;42.676;23.320;2023-05-18T14:43:41;8.93;;;8.13;;
38399;SDS011;24180;42.676;23.320;2023-05-18T14:46:07;8.33;;;7.70;;
38399;SDS011;24180;42.676;23.320;2023-05-18T14:48:32;9.20;;;8.40;;
38399;SDS011;24180;42.676;23.320;2023-05-18T14:50:58;9.67;;;8.50;;
38399;SDS011;24180;42.676;23.320;2023-05-18T14:53:23;8.67;;;7.87;;
38399;SDS011;24180;42.676;23.320;2023-05-18T14:55:49;8.87;;;8.07;;
38399;SDS011;24180;42.676;23.320;2023-05-18T14:58:14;9.40;;;8.60;;